sensor_id;sensor_type;location;lat;lon;timestamp;P1;durP1;ratioP1;P2;durP2;ratioP2
22176;SDS011;11254;50.098;8.726;2022-08-19T00:01:40;19.30;;;10.98;;
22176;SDS011;11254;50.098;8.726;2022-08-19T00:04:18;20.13;;;11.13;;
22176;SDS011;11254;50.098;8.726;2022-08-19T00:06:48;18.75;;;10.15;;
22176;SDS011;11254;50.098;8.726;2022-08-19T00:09:16;17.20;;;10.18;;
22176;SDS011;11254;50.098;8.726;2022-08-19T00:11:46;18.05;;;10.50;;
22176;SDS011;11254;50.098;8.726;2022-08-19T00:14:15;19.33;;;10.82;;
22176;SDS011;11254;50.098;8.726;2022-08-19T00:16:45;20.67;;;10.30;;
22176;SDS011;11254;50.098;8.726;2022-08-19T00:19:14;19.17;;;11.00;;
22176;SDS011;11254;50.098;8.726;2022-08-19T00:21:43;19.55;;;11.25;;
22176;SDS011;11254;50.098;8.726;2022-08-19T00:24:12;19.33;;;11.45;;
22176;SDS011;11254;50.098;8.726;2022-08-19T00:26:41;19.55;;;11.25;;
22176;SDS011;11254;50.098;8.726;2022-08-19T00:29:10;19.65;;;11.18;;
22176;SDS011;11254;50.098;8.726;2022-08-19T00:31:39;19.33;;;11.32;;
22176;SDS011;11254;50.098;8.726;2022-08-19T00:34:09;18.63;;;11.23;;
22176;SDS011;11254;50.098;8.726;2022-08-19T00:36:38;18.63;;;10.48;;
22176;SDS011;11254;50.098;8.726;2022-08-19T00:39:06;19.90;;;10.98;;
22176;SDS011;11254;50.098;8.726;2022-08-19T00:41:34;20.48;;;11.10;;
22176;SDS011;11254;50.098;8.726;2022-08-19T00:44:04;19.52;;;10.23;;
22176;SDS011;11254;50.098;8.726;2022-08-19T00:46:35;18.05;;;10.85;;
22176;SDS011;11254;50.098;8.726;2022-08-19T00:49:06;15.75;;;10.00;;
22176;SDS011;11254;50.098;8.726;2022-08-19T00:51:41;16.92;;;10.05;;
22176;SDS011;11254;50.098;8.726;2022-08-19T00:54:11;19.65;;;11.40;;
22176;SDS011;11254;50.098;8.726;2022-08-19T00:56:39;20.38;;;11.25;;
22176;SDS011;11254;50.098;8.726;2022-08-19T00:59:08;18.80;;;10.13;;
22176;SDS011;11254;50.098;8.726;2022-08-19T01:01:37;20.33;;;11.05;;
22176;SDS011;11254;50.098;8.726;2022-08-19T01:04:07;19.15;;;10.88;;
22176;SDS011;11254;50.098;8.726;2022-08-19T01:06:37;18.42;;;11.30;;
22176;SDS011;11254;50.098;8.726;2022-08-19T01:09:07;19.15;;;11.02;;
22176;SDS011;11254;50.098;8.726;2022-08-19T01:11:37;19.55;;;11.70;;
22176;SDS011;11254;50.098;8.726;2022-08-19T01:14:08;25.80;;;11.70;;
22176;SDS011;11254;50.098;8.726;2022-08-19T01:16:37;21.40;;;11.55;;
22176;SDS011;11254;50.098;8.726;2022-08-19T01:19:09;20.05;;;11.13;;
22176;SDS011;11254;50.098;8.726;2022-08-19T01:21:48;16.35;;;10.60;;
22176;SDS011;11254;50.098;8.726;2022-08-19T01:24:22;18.83;;;11.38;;
22176;SDS011;11254;50.098;8.726;2022-08-19T01:26:50;17.52;;;10.55;;
22176;SDS011;11254;50.098;8.726;2022-08-19T01:29:18;17.52;;;10.52;;
22176;SDS011;11254;50.098;8.726;2022-08-19T01:31:48;17.80;;;10.70;;
22176;SDS011;11254;50.098;8.726;2022-08-19T01:34:18;15.30;;;10.07;;
22176;SDS011;11254;50.098;8.726;2022-08-19T01:36:47;18.85;;;10.52;;
22176;SDS011;11254;50.098;8.726;2022-08-19T01:39:16;17.52;;;10.18;;
22176;SDS011;11254;50.098;8.726;2022-08-19T01:41:49;17.95;;;10.65;;
22176;SDS011;11254;50.098;8.726;2022-08-19T01:44:18;18.63;;;10.95;;
22176;SDS011;11254;50.098;8.726;2022-08-19T01:46:50;17.77;;;10.18;;
22176;SDS011;11254;50.098;8.726;2022-08-19T01:49:19;18.48;;;10.93;;
22176;SDS011;11254;50.098;8.726;2022-08-19T01:51:49;17.40;;;10.43;;
22176;SDS011;11254;50.098;8.726;2022-08-19T01:54:19;15.43;;;9.52;;
22176;SDS011;11254;50.098;8.726;2022-08-19T01:56:55;16.88;;;9.48;;
22176;SDS011;11254;50.098;8.726;2022-08-19T01:59:32;16.67;;;9.52;;
22176;SDS011;11254;50.098;8.726;2022-08-19T02:02:02;16.63;;;10.15;;
22176;SDS011;11254;50.098;8.726;2022-08-19T02:04:34;19.70;;;10.27;;
22176;SDS011;11254;50.098;8.726;2022-08-19T02:07:04;16.73;;;9.65;;
22176;SDS011;11254;50.098;8.726;2022-08-19T02:09:32;17.05;;;10.30;;
22176;SDS011;11254;50.098;8.726;2022-08-19T02:12:02;15.20;;;9.38;;
22176;SDS011;11254;50.098;8.726;2022-08-19T02:14:30;14.40;;;8.82;;
22176;SDS011;11254;50.098;8.726;2022-08-19T02:17:01;16.33;;;9.02;;
22176;SDS011;11254;50.098;8.726;2022-08-19T02:19:29;14.75;;;9.38;;
22176;SDS011;11254;50.098;8.726;2022-08-19T02:21:58;15.75;;;8.68;;
22176;SDS011;11254;50.098;8.726;2022-08-19T02:24:27;13.25;;;8.52;;
22176;SDS011;11254;50.098;8.726;2022-08-19T02:26:55;13.10;;;7.90;;
22176;SDS011;11254;50.098;8.726;2022-08-19T02:29:26;14.90;;;8.88;;
22176;SDS011;11254;50.098;8.726;2022-08-19T02:31:54;17.17;;;9.32;;
22176;SDS011;11254;50.098;8.726;2022-08-19T02:34:22;14.88;;;8.70;;
22176;SDS011;11254;50.098;8.726;2022-08-19T02:36:51;16.67;;;8.90;;
22176;SDS011;11254;50.098;8.726;2022-08-19T02:39:19;15.70;;;8.38;;
22176;SDS011;11254;50.098;8.726;2022-08-19T02:41:46;18.23;;;9.57;;
22176;SDS011;11254;50.098;8.726;2022-08-19T02:44:15;16.77;;;9.38;;
22176;SDS011;11254;50.098;8.726;2022-08-19T02:46:58;15.27;;;9.65;;
22176;SDS011;11254;50.098;8.726;2022-08-19T02:49:26;16.05;;;9.27;;
22176;SDS011;11254;50.098;8.726;2022-08-19T02:51:54;16.58;;;10.00;;
22176;SDS011;11254;50.098;8.726;2022-08-19T02:54:22;15.40;;;9.70;;
22176;SDS011;11254;50.098;8.726;2022-08-19T02:56:50;14.77;;;9.60;;
22176;SDS011;11254;50.098;8.726;2022-08-19T02:59:18;14.27;;;8.45;;
22176;SDS011;11254;50.098;8.726;2022-08-19T03:01:48;15.88;;;9.40;;
22176;SDS011;11254;50.098;8.726;2022-08-19T03:04:18;18.33;;;9.82;;
22176;SDS011;11254;50.098;8.726;2022-08-19T03:06:46;19.08;;;9.77;;
22176;SDS011;11254;50.098;8.726;2022-08-19T03:09:15;15.98;;;9.23;;
22176;SDS011;11254;50.098;8.726;2022-08-19T03:11:43;15.10;;;8.60;;
22176;SDS011;11254;50.098;8.726;2022-08-19T03:14:14;14.82;;;9.10;;
22176;SDS011;11254;50.098;8.726;2022-08-19T03:16:43;15.63;;;9.52;;
22176;SDS011;11254;50.098;8.726;2022-08-19T03:19:13;14.32;;;8.88;;
22176;SDS011;11254;50.098;8.726;2022-08-19T03:21:44;15.77;;;9.10;;
22176;SDS011;11254;50.098;8.726;2022-08-19T03:24:13;16.60;;;8.00;;
22176;SDS011;11254;50.098;8.726;2022-08-19T03:26:42;15.60;;;9.07;;
22176;SDS011;11254;50.098;8.726;2022-08-19T03:29:12;15.38;;;9.48;;
22176;SDS011;11254;50.098;8.726;2022-08-19T03:31:55;13.50;;;8.18;;
22176;SDS011;11254;50.098;8.726;2022-08-19T03:34:24;14.25;;;8.70;;
22176;SDS011;11254;50.098;8.726;2022-08-19T03:36:56;14.15;;;9.23;;
22176;SDS011;11254;50.098;8.726;2022-08-19T03:39:26;14.23;;;8.77;;
22176;SDS011;11254;50.098;8.726;2022-08-19T03:41:54;17.27;;;9.13;;
22176;SDS011;11254;50.098;8.726;2022-08-19T03:44:48;16.25;;;9.27;;
22176;SDS011;11254;50.098;8.726;2022-08-19T03:47:16;15.15;;;7.90;;
22176;SDS011;11254;50.098;8.726;2022-08-19T03:49:44;13.75;;;8.65;;
22176;SDS011;11254;50.098;8.726;2022-08-19T03:52:14;14.60;;;8.27;;
22176;SDS011;11254;50.098;8.726;2022-08-19T03:54:42;13.95;;;7.93;;
22176;SDS011;11254;50.098;8.726;2022-08-19T03:57:11;14.15;;;8.57;;
22176;SDS011;11254;50.098;8.726;2022-08-19T03:59:39;15.13;;;8.20;;
22176;SDS011;11254;50.098;8.726;2022-08-19T04:02:08;14.40;;;8.75;;
22176;SDS011;11254;50.098;8.726;2022-08-19T04:04:38;14.25;;;8.90;;
22176;SDS011;11254;50.098;8.726;2022-08-19T04:07:10;15.73;;;8.70;;
22176;SDS011;11254;50.098;8.726;2022-08-19T04:09:43;13.88;;;8.05;;
22176;SDS011;11254;50.098;8.726;2022-08-19T04:12:11;14.45;;;8.73;;
22176;SDS011;11254;50.098;8.726;2022-08-19T04:14:39;16.27;;;8.68;;
22176;SDS011;11254;50.098;8.726;2022-08-19T04:17:07;15.00;;;8.73;;
22176;SDS011;11254;50.098;8.726;2022-08-19T04:19:35;14.15;;;8.07;;
22176;SDS011;11254;50.098;8.726;2022-08-19T04:22:04;14.85;;;9.18;;
22176;SDS011;11254;50.098;8.726;2022-08-19T04:24:33;17.10;;;9.02;;
22176;SDS011;11254;50.098;8.726;2022-08-19T04:27:04;14.32;;;8.65;;
22176;SDS011;11254;50.098;8.726;2022-08-19T04:29:32;14.40;;;8.30;;
22176;SDS011;11254;50.098;8.726;2022-08-19T04:32:01;16.60;;;9.30;;
22176;SDS011;11254;50.098;8.726;2022-08-19T04:34:35;16.75;;;9.13;;
22176;SDS011;11254;50.098;8.726;2022-08-19T04:37:24;13.88;;;8.98;;
22176;SDS011;11254;50.098;8.726;2022-08-19T04:40:00;15.15;;;9.23;;
22176;SDS011;11254;50.098;8.726;2022-08-19T04:42:46;12.68;;;8.52;;
22176;SDS011;11254;50.098;8.726;2022-08-19T04:45:14;16.60;;;9.30;;
22176;SDS011;11254;50.098;8.726;2022-08-19T04:47:43;18.70;;;9.75;;
22176;SDS011;11254;50.098;8.726;2022-08-19T04:50:23;13.13;;;8.32;;
22176;SDS011;11254;50.098;8.726;2022-08-19T04:52:51;14.05;;;8.13;;
22176;SDS011;11254;50.098;8.726;2022-08-19T04:55:20;15.25;;;8.40;;
22176;SDS011;11254;50.098;8.726;2022-08-19T04:57:49;19.27;;;9.00;;
22176;SDS011;11254;50.098;8.726;2022-08-19T05:00:17;17.33;;;8.55;;
22176;SDS011;11254;50.098;8.726;2022-08-19T05:02:45;16.85;;;9.32;;
22176;SDS011;11254;50.098;8.726;2022-08-19T05:05:15;15.25;;;8.93;;
22176;SDS011;11254;50.098;8.726;2022-08-19T05:07:44;14.95;;;8.70;;
22176;SDS011;11254;50.098;8.726;2022-08-19T05:10:12;13.55;;;8.38;;
22176;SDS011;11254;50.098;8.726;2022-08-19T05:12:40;15.55;;;8.63;;
22176;SDS011;11254;50.098;8.726;2022-08-19T05:15:10;16.77;;;9.38;;
22176;SDS011;11254;50.098;8.726;2022-08-19T05:17:38;17.30;;;8.95;;
22176;SDS011;11254;50.098;8.726;2022-08-19T05:20:27;19.05;;;8.00;;
22176;SDS011;11254;50.098;8.726;2022-08-19T05:23:13;15.63;;;8.93;;
22176;SDS011;11254;50.098;8.726;2022-08-19T05:25:47;15.73;;;8.88;;
22176;SDS011;11254;50.098;8.726;2022-08-19T05:28:16;20.13;;;9.07;;
22176;SDS011;11254;50.098;8.726;2022-08-19T05:30:46;16.90;;;9.10;;
22176;SDS011;11254;50.098;8.726;2022-08-19T05:33:14;15.60;;;8.32;;
22176;SDS011;11254;50.098;8.726;2022-08-19T05:35:42;15.98;;;8.63;;
22176;SDS011;11254;50.098;8.726;2022-08-19T05:38:10;15.43;;;8.07;;
22176;SDS011;11254;50.098;8.726;2022-08-19T05:40:38;17.05;;;8.82;;
22176;SDS011;11254;50.098;8.726;2022-08-19T05:43:07;15.27;;;7.82;;
22176;SDS011;11254;50.098;8.726;2022-08-19T05:45:37;13.63;;;8.20;;
22176;SDS011;11254;50.098;8.726;2022-08-19T05:48:08;14.02;;;8.38;;
22176;SDS011;11254;50.098;8.726;2022-08-19T05:50:37;16.58;;;8.40;;
22176;SDS011;11254;50.098;8.726;2022-08-19T05:53:06;16.38;;;8.38;;
22176;SDS011;11254;50.098;8.726;2022-08-19T05:55:35;13.80;;;8.60;;
22176;SDS011;11254;50.098;8.726;2022-08-19T05:58:04;14.15;;;8.18;;
22176;SDS011;11254;50.098;8.726;2022-08-19T06:00:33;12.90;;;7.80;;
22176;SDS011;11254;50.098;8.726;2022-08-19T06:03:02;14.05;;;8.02;;
22176;SDS011;11254;50.098;8.726;2022-08-19T06:05:40;14.68;;;8.55;;
22176;SDS011;11254;50.098;8.726;2022-08-19T06:08:18;16.60;;;7.72;;
22176;SDS011;11254;50.098;8.726;2022-08-19T06:11:11;14.90;;;7.93;;
22176;SDS011;11254;50.098;8.726;2022-08-19T06:13:41;11.50;;;7.05;;
22176;SDS011;11254;50.098;8.726;2022-08-19T06:16:11;15.52;;;8.13;;
22176;SDS011;11254;50.098;8.726;2022-08-19T06:18:39;12.27;;;7.65;;
22176;SDS011;11254;50.098;8.726;2022-08-19T06:21:10;13.63;;;8.00;;
22176;SDS011;11254;50.098;8.726;2022-08-19T06:23:38;15.57;;;7.57;;
22176;SDS011;11254;50.098;8.726;2022-08-19T06:26:07;13.80;;;7.60;;
22176;SDS011;11254;50.098;8.726;2022-08-19T06:28:39;14.60;;;7.15;;
22176;SDS011;11254;50.098;8.726;2022-08-19T06:31:09;12.60;;;6.88;;
22176;SDS011;11254;50.098;8.726;2022-08-19T06:33:37;13.38;;;6.80;;
22176;SDS011;11254;50.098;8.726;2022-08-19T06:36:07;12.30;;;7.32;;
22176;SDS011;11254;50.098;8.726;2022-08-19T06:38:36;12.15;;;6.63;;
22176;SDS011;11254;50.098;8.726;2022-08-19T06:41:05;12.55;;;7.10;;
22176;SDS011;11254;50.098;8.726;2022-08-19T06:43:33;11.95;;;6.95;;
22176;SDS011;11254;50.098;8.726;2022-08-19T06:46:09;11.02;;;6.90;;
22176;SDS011;11254;50.098;8.726;2022-08-19T06:48:40;12.45;;;7.53;;
22176;SDS011;11254;50.098;8.726;2022-08-19T06:51:11;11.65;;;6.65;;
22176;SDS011;11254;50.098;8.726;2022-08-19T06:53:46;13.07;;;7.20;;
22176;SDS011;11254;50.098;8.726;2022-08-19T06:56:21;13.13;;;6.57;;
22176;SDS011;11254;50.098;8.726;2022-08-19T06:58:52;13.20;;;6.97;;
22176;SDS011;11254;50.098;8.726;2022-08-19T07:01:20;12.18;;;6.10;;
22176;SDS011;11254;50.098;8.726;2022-08-19T07:03:49;14.18;;;6.45;;
22176;SDS011;11254;50.098;8.726;2022-08-19T07:06:17;12.05;;;6.32;;
22176;SDS011;11254;50.098;8.726;2022-08-19T07:09:08;11.05;;;6.30;;
22176;SDS011;11254;50.098;8.726;2022-08-19T07:11:37;8.57;;;5.72;;
22176;SDS011;11254;50.098;8.726;2022-08-19T07:14:09;13.40;;;6.25;;
22176;SDS011;11254;50.098;8.726;2022-08-19T07:16:45;9.00;;;5.30;;
22176;SDS011;11254;50.098;8.726;2022-08-19T07:19:16;9.40;;;5.82;;
22176;SDS011;11254;50.098;8.726;2022-08-19T07:21:45;9.52;;;5.75;;
22176;SDS011;11254;50.098;8.726;2022-08-19T07:24:15;8.35;;;5.13;;
22176;SDS011;11254;50.098;8.726;2022-08-19T07:26:44;9.60;;;5.47;;
22176;SDS011;11254;50.098;8.726;2022-08-19T07:29:17;9.35;;;5.68;;
22176;SDS011;11254;50.098;8.726;2022-08-19T07:31:51;8.15;;;4.93;;
22176;SDS011;11254;50.098;8.726;2022-08-19T07:34:22;8.52;;;4.90;;
22176;SDS011;11254;50.098;8.726;2022-08-19T07:36:51;8.85;;;5.07;;
22176;SDS011;11254;50.098;8.726;2022-08-19T07:39:22;7.93;;;5.13;;
22176;SDS011;11254;50.098;8.726;2022-08-19T07:41:52;6.57;;;4.25;;
22176;SDS011;11254;50.098;8.726;2022-08-19T07:44:22;10.15;;;5.65;;
22176;SDS011;11254;50.098;8.726;2022-08-19T07:46:51;10.00;;;4.93;;
22176;SDS011;11254;50.098;8.726;2022-08-19T07:49:22;9.27;;;5.00;;
22176;SDS011;11254;50.098;8.726;2022-08-19T07:51:51;6.68;;;4.43;;
22176;SDS011;11254;50.098;8.726;2022-08-19T07:54:25;10.85;;;5.10;;
22176;SDS011;11254;50.098;8.726;2022-08-19T07:56:54;8.98;;;4.30;;
22176;SDS011;11254;50.098;8.726;2022-08-19T07:59:23;8.40;;;4.63;;
22176;SDS011;11254;50.098;8.726;2022-08-19T08:01:52;7.68;;;4.65;;
22176;SDS011;11254;50.098;8.726;2022-08-19T08:04:20;9.23;;;4.28;;
22176;SDS011;11254;50.098;8.726;2022-08-19T08:07:03;7.40;;;4.07;;
22176;SDS011;11254;50.098;8.726;2022-08-19T08:09:47;7.53;;;4.70;;
22176;SDS011;11254;50.098;8.726;2022-08-19T08:12:17;7.60;;;4.30;;
22176;SDS011;11254;50.098;8.726;2022-08-19T08:15:03;7.75;;;3.88;;
22176;SDS011;11254;50.098;8.726;2022-08-19T08:17:38;6.68;;;3.63;;
22176;SDS011;11254;50.098;8.726;2022-08-19T08:20:17;6.85;;;3.80;;
22176;SDS011;11254;50.098;8.726;2022-08-19T08:22:46;6.57;;;3.47;;
22176;SDS011;11254;50.098;8.726;2022-08-19T08:25:34;7.72;;;4.00;;
22176;SDS011;11254;50.098;8.726;2022-08-19T08:28:04;5.47;;;3.78;;
22176;SDS011;11254;50.098;8.726;2022-08-19T08:30:36;6.55;;;3.55;;
22176;SDS011;11254;50.098;8.726;2022-08-19T08:33:10;5.78;;;4.25;;
22176;SDS011;11254;50.098;8.726;2022-08-19T08:35:40;6.07;;;3.90;;
22176;SDS011;11254;50.098;8.726;2022-08-19T08:38:09;7.07;;;3.85;;
22176;SDS011;11254;50.098;8.726;2022-08-19T08:40:39;6.13;;;3.65;;
22176;SDS011;11254;50.098;8.726;2022-08-19T08:43:14;7.97;;;3.58;;
22176;SDS011;11254;50.098;8.726;2022-08-19T08:45:59;5.95;;;3.65;;
22176;SDS011;11254;50.098;8.726;2022-08-19T08:48:33;5.93;;;3.10;;
22176;SDS011;11254;50.098;8.726;2022-08-19T08:51:09;6.30;;;3.63;;
22176;SDS011;11254;50.098;8.726;2022-08-19T08:53:46;7.20;;;3.65;;
22176;SDS011;11254;50.098;8.726;2022-08-19T08:56:23;5.60;;;3.60;;
22176;SDS011;11254;50.098;8.726;2022-08-19T08:58:54;6.10;;;3.78;;
22176;SDS011;11254;50.098;8.726;2022-08-19T09:01:25;5.50;;;3.50;;
22176;SDS011;11254;50.098;8.726;2022-08-19T09:03:56;7.63;;;3.65;;
22176;SDS011;11254;50.098;8.726;2022-08-19T09:06:29;6.95;;;3.90;;
22176;SDS011;11254;50.098;8.726;2022-08-19T09:09:10;6.68;;;3.72;;
22176;SDS011;11254;50.098;8.726;2022-08-19T09:11:48;6.70;;;3.47;;
22176;SDS011;11254;50.098;8.726;2022-08-19T09:14:32;5.45;;;3.75;;
22176;SDS011;11254;50.098;8.726;2022-08-19T09:17:17;5.70;;;3.60;;
22176;SDS011;11254;50.098;8.726;2022-08-19T09:19:51;7.72;;;4.05;;
22176;SDS011;11254;50.098;8.726;2022-08-19T09:22:21;7.25;;;3.58;;
22176;SDS011;11254;50.098;8.726;2022-08-19T09:24:53;5.72;;;3.90;;
22176;SDS011;11254;50.098;8.726;2022-08-19T09:27:23;6.18;;;3.38;;
22176;SDS011;11254;50.098;8.726;2022-08-19T09:30:10;4.80;;;3.08;;
22176;SDS011;11254;50.098;8.726;2022-08-19T09:32:41;8.35;;;3.35;;
22176;SDS011;11254;50.098;8.726;2022-08-19T09:35:11;5.72;;;3.92;;
22176;SDS011;11254;50.098;8.726;2022-08-19T09:37:40;8.55;;;4.22;;
22176;SDS011;11254;50.098;8.726;2022-08-19T09:40:09;6.53;;;4.45;;
22176;SDS011;11254;50.098;8.726;2022-08-19T09:42:39;7.18;;;4.22;;
22176;SDS011;11254;50.098;8.726;2022-08-19T09:45:19;9.07;;;4.13;;
22176;SDS011;11254;50.098;8.726;2022-08-19T09:47:49;8.38;;;4.03;;
22176;SDS011;11254;50.098;8.726;2022-08-19T09:50:20;6.28;;;4.53;;
22176;SDS011;11254;50.098;8.726;2022-08-19T09:52:49;7.55;;;4.47;;
22176;SDS011;11254;50.098;8.726;2022-08-19T09:55:23;8.80;;;4.63;;
22176;SDS011;11254;50.098;8.726;2022-08-19T09:58:02;10.68;;;4.88;;
22176;SDS011;11254;50.098;8.726;2022-08-19T10:00:32;9.90;;;4.80;;
22176;SDS011;11254;50.098;8.726;2022-08-19T10:03:00;6.80;;;4.90;;
22176;SDS011;11254;50.098;8.726;2022-08-19T10:05:28;9.38;;;4.80;;
22176;SDS011;11254;50.098;8.726;2022-08-19T10:08:15;7.93;;;4.63;;
22176;SDS011;11254;50.098;8.726;2022-08-19T10:10:46;8.27;;;4.63;;
22176;SDS011;11254;50.098;8.726;2022-08-19T10:13:17;7.38;;;4.05;;
22176;SDS011;11254;50.098;8.726;2022-08-19T10:15:48;7.32;;;4.38;;
22176;SDS011;11254;50.098;8.726;2022-08-19T10:18:17;8.43;;;4.93;;
22176;SDS011;11254;50.098;8.726;2022-08-19T10:20:47;7.40;;;4.82;;
22176;SDS011;11254;50.098;8.726;2022-08-19T10:23:18;9.85;;;4.70;;
22176;SDS011;11254;50.098;8.726;2022-08-19T10:25:47;6.45;;;4.72;;
22176;SDS011;11254;50.098;8.726;2022-08-19T10:28:17;7.88;;;5.10;;
22176;SDS011;11254;50.098;8.726;2022-08-19T10:30:45;7.43;;;5.32;;
22176;SDS011;11254;50.098;8.726;2022-08-19T10:33:14;8.00;;;5.22;;
22176;SDS011;11254;50.098;8.726;2022-08-19T10:36:02;10.88;;;5.82;;
22176;SDS011;11254;50.098;8.726;2022-08-19T10:38:33;8.68;;;5.45;;
22176;SDS011;11254;50.098;8.726;2022-08-19T10:41:08;9.02;;;6.43;;
22176;SDS011;11254;50.098;8.726;2022-08-19T10:43:39;7.22;;;5.35;;
22176;SDS011;11254;50.098;8.726;2022-08-19T10:46:07;7.07;;;5.07;;
22176;SDS011;11254;50.098;8.726;2022-08-19T10:48:42;8.48;;;5.50;;
22176;SDS011;11254;50.098;8.726;2022-08-19T10:51:11;8.07;;;5.75;;
22176;SDS011;11254;50.098;8.726;2022-08-19T10:53:56;10.52;;;5.93;;
22176;SDS011;11254;50.098;8.726;2022-08-19T10:56:26;8.23;;;6.07;;
22176;SDS011;11254;50.098;8.726;2022-08-19T10:59:14;11.07;;;6.30;;
22176;SDS011;11254;50.098;8.726;2022-08-19T11:01:44;11.30;;;6.82;;
22176;SDS011;11254;50.098;8.726;2022-08-19T11:04:16;8.73;;;6.13;;
22176;SDS011;11254;50.098;8.726;2022-08-19T11:06:45;10.75;;;6.65;;
22176;SDS011;11254;50.098;8.726;2022-08-19T11:09:15;11.27;;;7.70;;
22176;SDS011;11254;50.098;8.726;2022-08-19T11:11:45;8.95;;;6.72;;
22176;SDS011;11254;50.098;8.726;2022-08-19T11:14:15;10.55;;;6.60;;
22176;SDS011;11254;50.098;8.726;2022-08-19T11:16:46;9.85;;;6.82;;
22176;SDS011;11254;50.098;8.726;2022-08-19T11:19:16;9.35;;;7.20;;
22176;SDS011;11254;50.098;8.726;2022-08-19T11:21:46;15.10;;;7.78;;
22176;SDS011;11254;50.098;8.726;2022-08-19T11:24:16;10.73;;;7.40;;
22176;SDS011;11254;50.098;8.726;2022-08-19T11:26:46;11.27;;;7.25;;
22176;SDS011;11254;50.098;8.726;2022-08-19T11:29:18;9.38;;;6.25;;
22176;SDS011;11254;50.098;8.726;2022-08-19T11:31:49;13.55;;;6.63;;
22176;SDS011;11254;50.098;8.726;2022-08-19T11:34:18;10.05;;;6.78;;
22176;SDS011;11254;50.098;8.726;2022-08-19T11:36:47;10.20;;;6.50;;
22176;SDS011;11254;50.098;8.726;2022-08-19T11:39:17;12.13;;;7.93;;
22176;SDS011;11254;50.098;8.726;2022-08-19T11:41:47;12.57;;;7.65;;
22176;SDS011;11254;50.098;8.726;2022-08-19T11:44:15;12.55;;;8.68;;
22176;SDS011;11254;50.098;8.726;2022-08-19T11:46:45;11.02;;;8.13;;
22176;SDS011;11254;50.098;8.726;2022-08-19T11:49:14;12.55;;;8.15;;
22176;SDS011;11254;50.098;8.726;2022-08-19T11:51:43;11.95;;;7.18;;
22176;SDS011;11254;50.098;8.726;2022-08-19T11:54:11;12.65;;;8.10;;
22176;SDS011;11254;50.098;8.726;2022-08-19T11:56:40;10.48;;;8.27;;
22176;SDS011;11254;50.098;8.726;2022-08-19T11:59:09;11.30;;;7.93;;
22176;SDS011;11254;50.098;8.726;2022-08-19T12:01:41;10.88;;;7.68;;
22176;SDS011;11254;50.098;8.726;2022-08-19T12:04:10;13.02;;;8.88;;
22176;SDS011;11254;50.098;8.726;2022-08-19T12:06:39;25.05;;;14.27;;
22176;SDS011;11254;50.098;8.726;2022-08-19T12:09:08;11.98;;;8.70;;
22176;SDS011;11254;50.098;8.726;2022-08-19T12:11:38;11.57;;;8.27;;
22176;SDS011;11254;50.098;8.726;2022-08-19T12:14:08;10.98;;;8.18;;
22176;SDS011;11254;50.098;8.726;2022-08-19T12:16:43;12.00;;;9.02;;
22176;SDS011;11254;50.098;8.726;2022-08-19T12:19:18;11.35;;;9.02;;
22176;SDS011;11254;50.098;8.726;2022-08-19T12:21:48;11.20;;;8.50;;
22176;SDS011;11254;50.098;8.726;2022-08-19T12:24:17;10.75;;;7.78;;
22176;SDS011;11254;50.098;8.726;2022-08-19T12:26:49;13.57;;;8.15;;
22176;SDS011;11254;50.098;8.726;2022-08-19T12:29:19;10.27;;;6.95;;
22176;SDS011;11254;50.098;8.726;2022-08-19T12:31:51;9.88;;;7.00;;
22176;SDS011;11254;50.098;8.726;2022-08-19T12:34:19;11.35;;;7.63;;
22176;SDS011;11254;50.098;8.726;2022-08-19T12:36:47;12.05;;;7.57;;
22176;SDS011;11254;50.098;8.726;2022-08-19T12:39:16;11.02;;;7.40;;
22176;SDS011;11254;50.098;8.726;2022-08-19T12:41:44;10.95;;;8.05;;
22176;SDS011;11254;50.098;8.726;2022-08-19T12:44:20;12.02;;;7.47;;
22176;SDS011;11254;50.098;8.726;2022-08-19T12:46:58;12.02;;;8.30;;
22176;SDS011;11254;50.098;8.726;2022-08-19T12:49:29;11.88;;;8.20;;
22176;SDS011;11254;50.098;8.726;2022-08-19T12:52:18;9.50;;;6.97;;
22176;SDS011;11254;50.098;8.726;2022-08-19T12:54:49;11.35;;;7.78;;
22176;SDS011;11254;50.098;8.726;2022-08-19T12:57:20;12.48;;;7.65;;
22176;SDS011;11254;50.098;8.726;2022-08-19T12:59:58;15.23;;;7.88;;
22176;SDS011;11254;50.098;8.726;2022-08-19T13:02:32;11.32;;;8.30;;
22176;SDS011;11254;50.098;8.726;2022-08-19T13:05:05;11.90;;;7.43;;
22176;SDS011;11254;50.098;8.726;2022-08-19T13:07:35;13.02;;;8.00;;
22176;SDS011;11254;50.098;8.726;2022-08-19T13:10:05;10.23;;;7.28;;
22176;SDS011;11254;50.098;8.726;2022-08-19T13:12:34;9.80;;;7.25;;
22176;SDS011;11254;50.098;8.726;2022-08-19T13:15:02;9.90;;;6.80;;
22176;SDS011;11254;50.098;8.726;2022-08-19T13:17:38;12.27;;;8.13;;
22176;SDS011;11254;50.098;8.726;2022-08-19T13:20:07;10.52;;;7.75;;
22176;SDS011;11254;50.098;8.726;2022-08-19T13:22:37;12.70;;;7.10;;
22176;SDS011;11254;50.098;8.726;2022-08-19T13:25:06;12.68;;;6.90;;
22176;SDS011;11254;50.098;8.726;2022-08-19T13:27:35;11.20;;;7.05;;
22176;SDS011;11254;50.098;8.726;2022-08-19T13:30:04;9.55;;;6.45;;
22176;SDS011;11254;50.098;8.726;2022-08-19T13:32:53;9.55;;;6.78;;
22176;SDS011;11254;50.098;8.726;2022-08-19T13:35:43;14.10;;;6.50;;
22176;SDS011;11254;50.098;8.726;2022-08-19T13:38:14;8.85;;;5.78;;
22176;SDS011;11254;50.098;8.726;2022-08-19T13:40:44;9.63;;;5.78;;
22176;SDS011;11254;50.098;8.726;2022-08-19T13:43:13;9.45;;;6.00;;
22176;SDS011;11254;50.098;8.726;2022-08-19T13:45:48;8.18;;;5.60;;
22176;SDS011;11254;50.098;8.726;2022-08-19T13:48:20;9.70;;;6.00;;
22176;SDS011;11254;50.098;8.726;2022-08-19T13:50:48;8.18;;;5.80;;
22176;SDS011;11254;50.098;8.726;2022-08-19T13:53:17;8.73;;;5.60;;
22176;SDS011;11254;50.098;8.726;2022-08-19T13:55:45;7.15;;;5.22;;
22176;SDS011;11254;50.098;8.726;2022-08-19T13:58:13;8.88;;;5.70;;
22176;SDS011;11254;50.098;8.726;2022-08-19T14:00:42;11.25;;;5.70;;
22176;SDS011;11254;50.098;8.726;2022-08-19T14:03:11;7.78;;;5.68;;
22176;SDS011;11254;50.098;8.726;2022-08-19T14:05:41;8.10;;;5.70;;
22176;SDS011;11254;50.098;8.726;2022-08-19T14:08:09;9.73;;;5.88;;
22176;SDS011;11254;50.098;8.726;2022-08-19T14:10:40;7.60;;;5.50;;
22176;SDS011;11254;50.098;8.726;2022-08-19T14:13:12;8.68;;;5.60;;
22176;SDS011;11254;50.098;8.726;2022-08-19T14:15:41;8.07;;;5.18;;
22176;SDS011;11254;50.098;8.726;2022-08-19T14:18:09;8.25;;;5.50;;
22176;SDS011;11254;50.098;8.726;2022-08-19T14:20:37;9.40;;;5.28;;
22176;SDS011;11254;50.098;8.726;2022-08-19T14:23:07;8.27;;;5.82;;
22176;SDS011;11254;50.098;8.726;2022-08-19T14:25:35;7.05;;;4.88;;
22176;SDS011;11254;50.098;8.726;2022-08-19T14:28:04;7.05;;;4.95;;
22176;SDS011;11254;50.098;8.726;2022-08-19T14:30:33;7.72;;;4.53;;
22176;SDS011;11254;50.098;8.726;2022-08-19T14:33:04;6.80;;;4.40;;
22176;SDS011;11254;50.098;8.726;2022-08-19T14:35:33;6.68;;;4.80;;
22176;SDS011;11254;50.098;8.726;2022-08-19T14:38:02;6.47;;;4.60;;
22176;SDS011;11254;50.098;8.726;2022-08-19T14:40:33;6.13;;;4.55;;
22176;SDS011;11254;50.098;8.726;2022-08-19T14:43:02;7.47;;;4.95;;
22176;SDS011;11254;50.098;8.726;2022-08-19T14:45:32;6.57;;;4.85;;
22176;SDS011;11254;50.098;8.726;2022-08-19T14:48:02;6.68;;;4.50;;
22176;SDS011;11254;50.098;8.726;2022-08-19T14:50:31;8.73;;;5.65;;
22176;SDS011;11254;50.098;8.726;2022-08-19T14:53:00;5.85;;;4.22;;
22176;SDS011;11254;50.098;8.726;2022-08-19T14:55:41;6.78;;;4.65;;
22176;SDS011;11254;50.098;8.726;2022-08-19T14:58:09;9.48;;;4.53;;
22176;SDS011;11254;50.098;8.726;2022-08-19T15:00:56;7.18;;;4.85;;
22176;SDS011;11254;50.098;8.726;2022-08-19T15:03:25;8.25;;;4.95;;